Fu Quan Shan — VRJW3 — position and weather

sailwx.info

Track history (hours):
 
Tides and Currents Weather Stations Pressure Air Temp Water Temp Dewpoint Dewpoint Depression Visibility Wind Speed Wind Dir Waves Ship Positions

Fu Quan Shan

Last reported at 2018-May-11 12:06 UTC. Time now 2018-May-22 19:48 UTC.
Position N 22°03' E 121°10'.
Warning: this ship's position is 11 days out of date.

Length 190 m; draft 11.4 m.

Type: Cargo ship. MMSI: 477902600.

Date/timePositionNaut miles runAvg speedWind from/ knotsBaromVisibWave heightAir tempDewpointWater temp
2018-May-11 12:06N 22°03' E 121°10'310.5
2018-May-11 11:48N 22°06' E 121°12'310.5
2018-May-11 11:29N 22°08' E 121°15'810.7
2018-May-11 10:42N 22°15' E 121°20'1210.7
2018-May-11 09:35N 22°24' E 121°28'310.8
2018-May-11 09:19N 22°26' E 121°30'411.3
2018-May-11 08:59N 22°29' E 121°32'710.9
2018-May-11 08:19N 22°35' E 121°38'9 9.6
2018-May-11 07:23N 22°42' E 121°44'1 3.1
2018-May-11 06:55N 22°42' E 121°45'3 5.5
2018-May-11 06:26N 22°44' E 121°48'  
Track history (hours):
 
Tides and Currents Weather Stations Pressure Air Temp Water Temp Dewpoint Dewpoint Depression Visibility Wind Speed Wind Dir Waves Ship Positions

Fu Quan Shan

Last reported at 2018-May-11 12:06 UTC. Time now 2018-May-22 19:48 UTC.
Position N 22°03' E 121°10'.
Warning: this ship's position is 11 days out of date.

Length 190 m; draft 11.4 m.

Type: Cargo ship. MMSI: 477902600.

Date/timePositionNaut miles runAvg speedWind from/ knotsBaromVisibWave heightAir tempDewpointWater temp
2018-May-11 12:06N 22°03' E 121°10'310.5
2018-May-11 11:48N 22°06' E 121°12'310.5
2018-May-11 11:29N 22°08' E 121°15'810.7
2018-May-11 10:42N 22°15' E 121°20'1210.7
2018-May-11 09:35N 22°24' E 121°28'310.8
2018-May-11 09:19N 22°26' E 121°30'411.3
2018-May-11 08:59N 22°29' E 121°32'710.9
2018-May-11 08:19N 22°35' E 121°38'9 9.6
2018-May-11 07:23N 22°42' E 121°44'1 3.1
2018-May-11 06:55N 22°42' E 121°45'3 5.5
2018-May-11 06:26N 22°44' E 121°48'  

Dump ship's entire track history